createdAt,value
2019-06-07T00:00:30.751Z,80.89
2019-06-07T00:02:40.248Z,80.76
2019-06-07T00:05:10.000Z,80.75
2019-06-07T00:07:39.239Z,81.14
2019-06-07T00:10:09.431Z,80.87
2019-06-07T00:12:38.163Z,81.21
2019-06-07T00:15:12.937Z,81.73
2019-06-07T00:17:37.533Z,81.85
2019-06-07T00:20:13.873Z,82.02
2019-06-07T00:22:39.694Z,81.69
2019-06-07T00:25:12.414Z,81.78
2019-06-07T00:27:39.574Z,81.87
2019-06-07T00:30:33.266Z,81.89
2019-06-07T00:32:40.475Z,81.28
2019-06-07T00:35:09.332Z,81.31
2019-06-07T00:37:38.025Z,81.36
2019-06-07T00:40:16.245Z,81.52
2019-06-07T00:42:37.520Z,81.56
2019-06-07T00:45:07.072Z,81.72
2019-06-07T00:47:35.669Z,81.23
2019-06-07T00:50:05.024Z,81.53
2019-06-07T00:55:07.592Z,81.65
2019-06-07T00:57:36.045Z,81.14
2019-06-07T01:00:07.880Z,81.41
2019-06-07T01:02:36.482Z,81.41
2019-06-07T01:05:07.019Z,81.34
2019-06-07T01:07:35.628Z,81.44
2019-06-07T01:10:06.876Z,81.47
2019-06-07T01:12:35.381Z,81.34
2019-06-07T01:15:05.267Z,81.53
2019-06-07T01:17:43.861Z,81.67
2019-06-07T01:20:09.380Z,81.85
2019-06-07T01:22:37.886Z,81.27
2019-06-07T01:25:09.173Z,81.30
2019-06-07T01:27:37.728Z,81.33
2019-06-07T01:30:10.963Z,81.60
2019-06-07T01:32:39.556Z,81.02
2019-06-07T01:35:08.616Z,81.27
2019-06-07T01:37:37.115Z,81.53
2019-06-07T01:40:08.600Z,81.42
2019-06-07T01:42:37.184Z,81.01
2019-06-07T01:45:09.944Z,81.43
2019-06-07T01:47:38.577Z,81.55
2019-06-07T01:50:09.197Z,81.81
2019-06-07T01:52:37.795Z,82.50
2019-06-07T01:55:07.158Z,82.44
2019-06-07T01:57:47.576Z,82.52
2019-06-07T02:00:07.057Z,81.86
2019-06-07T02:02:35.650Z,81.69
2019-06-07T02:05:08.141Z,81.47
2019-06-07T02:07:36.898Z,81.02
2019-06-07T02:10:09.139Z,81.12
2019-06-07T02:12:43.175Z,81.53
2019-06-07T02:15:09.327Z,81.53
2019-06-07T02:17:38.319Z,81.71
2019-06-07T02:20:07.651Z,81.79
2019-06-07T02:22:36.244Z,81.67
2019-06-07T02:25:35.085Z,81.70
2019-06-07T02:27:37.037Z,81.47
2019-06-07T02:30:35.381Z,81.47
2019-06-07T02:32:37.834Z,81.34
2019-06-07T02:35:06.955Z,81.37
2019-06-07T02:37:36.978Z,81.43
2019-06-07T02:40:07.603Z,81.58
2019-06-07T02:42:42.214Z,81.59
2019-06-07T02:45:10.719Z,81.65
2019-06-07T02:47:40.010Z,81.90
2019-06-07T02:50:11.540Z,82.05
2019-06-07T02:52:41.628Z,82.11
2019-06-07T02:55:11.791Z,81.98
2019-06-07T02:57:42.110Z,82.07
2019-06-07T03:00:47.487Z,81.88
2019-06-07T03:02:43.504Z,81.84
2019-06-07T03:05:12.665Z,81.59
2019-06-07T03:07:44.999Z,81.07
2019-06-07T03:10:13.363Z,80.82
2019-06-07T03:12:44.544Z,81.25
2019-06-07T03:15:32.185Z,81.01
2019-06-07T03:17:46.736Z,81.32
2019-06-07T03:20:17.050Z,80.95
2019-06-07T03:22:48.270Z,80.73
2019-06-07T03:28:08.295Z,80.80
2019-06-07T03:30:52.204Z,80.64
2019-06-07T03:33:07.176Z,81.12
2019-06-07T03:35:37.441Z,81.20
2019-06-07T03:38:05.919Z,81.21
2019-06-07T03:40:39.623Z,81.14
2019-06-07T03:43:04.661Z,81.19
2019-06-07T03:45:36.016Z,81.64
2019-06-07T03:48:03.483Z,81.68
2019-06-07T03:50:35.930Z,81.85
2019-06-07T03:53:02.299Z,82.00
2019-06-07T03:55:34.883Z,82.40
2019-06-07T03:58:30.640Z,81.89
2019-06-07T04:00:34.101Z,81.82
2019-06-07T04:03:01.619Z,81.93
2019-06-07T04:05:32.911Z,81.75
2019-06-07T04:08:00.373Z,81.89
2019-06-07T04:10:52.040Z,82.02
2019-06-07T04:12:59.168Z,82.56
2019-06-07T04:15:28.102Z,82.52
2019-06-07T04:18:01.788Z,82.28
2019-06-07T04:20:29.195Z,81.83
2019-06-07T04:22:57.222Z,82.05
2019-06-07T04:25:26.035Z,81.86
2019-06-07T04:27:54.522Z,81.82
2019-06-07T04:30:39.485Z,81.26
2019-06-07T04:33:08.144Z,81.10
2019-06-07T04:35:40.030Z,81.09
2019-06-07T04:38:13.400Z,80.90
2019-06-07T04:40:43.118Z,80.96
2019-06-07T04:43:12.348Z,80.59
2019-06-07T04:45:50.343Z,80.89
2019-06-07T04:48:11.584Z,80.82
2019-06-07T04:50:43.645Z,80.94
2019-06-07T04:53:10.510Z,81.08
2019-06-07T04:55:41.620Z,81.26
2019-06-07T04:58:09.231Z,81.57
2019-06-07T05:01:01.470Z,81.55
2019-06-07T05:03:08.171Z,81.40
2019-06-07T05:05:40.880Z,81.81
2019-06-07T05:08:07.864Z,81.56
2019-06-07T05:10:38.775Z,81.30
2019-06-07T05:13:07.379Z,81.41
2019-06-07T05:15:38.986Z,80.94
2019-06-07T05:18:06.159Z,80.84
2019-06-07T05:20:36.113Z,81.02
2019-06-07T05:23:04.865Z,80.91
2019-06-07T05:25:35.425Z,80.72
2019-06-07T05:28:03.775Z,80.82
2019-06-07T05:33:09.149Z,80.90
2019-06-07T05:35:41.365Z,80.66
2019-06-07T05:38:08.542Z,80.66
2019-06-07T05:40:42.952Z,80.62
2019-06-07T05:43:27.286Z,80.74
2019-06-07T05:45:55.799Z,80.39
2019-06-07T05:48:24.397Z,80.39
2019-06-07T05:50:56.793Z,80.06
2019-06-07T05:53:23.171Z,79.36
2019-06-07T05:55:51.727Z,79.24
2019-06-07T05:58:20.244Z,79.21
2019-06-07T06:00:48.894Z,79.12
2019-06-07T06:03:17.614Z,79.08
2019-06-07T06:05:54.579Z,79.33
2019-06-07T06:08:18.012Z,79.54
2019-06-07T06:10:48.632Z,79.50
2019-06-07T06:13:16.718Z,79.73
2019-06-07T06:15:58.519Z,79.45
2019-06-07T06:18:15.443Z,79.89
2019-06-07T06:23:14.268Z,79.56
2019-06-07T06:25:52.541Z,79.09
2019-06-07T06:28:15.756Z,79.25
2019-06-07T06:30:47.286Z,79.98
2019-06-07T06:33:30.720Z,79.51
2019-06-07T06:35:47.485Z,79.82
2019-06-07T06:38:14.391Z,79.81
2019-06-07T06:40:46.295Z,79.73
2019-06-07T06:43:13.155Z,79.43
2019-06-07T06:45:42.928Z,79.17
2019-06-07T06:48:12.265Z,79.40
2019-06-07T06:50:41.123Z,79.46
2019-06-07T06:53:09.745Z,79.06
2019-06-07T06:55:39.081Z,79.17
2019-06-07T06:58:07.641Z,78.50
2019-06-07T07:00:53.541Z,78.83
2019-06-07T07:03:56.528Z,78.96
2019-06-07T07:05:50.840Z,77.59
2019-06-07T07:08:17.984Z,77.40
2019-06-07T07:10:51.134Z,69.75
2019-06-07T07:13:17.359Z,54.89
2019-06-07T07:15:50.126Z,50.12
2019-06-07T07:18:16.226Z,45.46
2019-06-07T07:20:45.876Z,43.16
2019-06-07T07:23:15.146Z,41.77
2019-06-07T07:25:50.592Z,39.82
2019-06-07T07:28:14.154Z,38.07
2019-06-07T07:30:54.859Z,37.57
2019-06-07T07:33:20.794Z,36.81
2019-06-07T07:36:10.879Z,34.73
2019-06-07T07:38:20.264Z,34.68
2019-06-07T07:41:01.863Z,35.07
2019-06-07T07:43:19.050Z,35.58
2019-06-07T07:45:55.012Z,34.88
2019-06-07T07:48:18.391Z,34.47
2019-06-07T07:50:49.737Z,34.49
2019-06-07T07:53:17.711Z,34.63
2019-06-07T07:55:51.559Z,34.08
2019-06-07T07:58:16.810Z,34.13
2019-06-07T08:01:00.358Z,33.60
2019-06-07T08:03:15.622Z,33.98
2019-06-07T08:05:45.714Z,33.11
2019-06-07T08:08:15.005Z,34.15
2019-06-07T08:10:43.518Z,33.86
2019-06-07T08:13:24.537Z,32.41
2019-06-07T08:15:42.418Z,32.68
2019-06-07T08:18:10.970Z,32.68
2019-06-07T08:20:39.574Z,33.28
2019-06-07T08:23:08.269Z,32.18
2019-06-07T08:25:36.838Z,31.95
2019-06-07T08:28:11.387Z,31.59
2019-06-07T08:30:52.349Z,31.68
2019-06-07T08:33:25.460Z,32.25
2019-06-07T08:36:05.909Z,31.38
2019-06-07T08:38:33.964Z,31.31
2019-06-07T08:40:41.124Z,31.28
2019-06-07T08:43:19.500Z,31.28
2019-06-07T08:45:40.072Z,31.61
2019-06-07T08:48:26.578Z,31.45
2019-06-07T08:50:39.014Z,31.75
2019-06-07T08:53:12.119Z,31.24
2019-06-07T08:55:37.926Z,30.89
2019-06-07T08:58:08.758Z,31.64
2019-06-07T09:00:46.903Z,30.38
2019-06-07T09:03:07.722Z,30.51
2019-06-07T09:05:36.329Z,30.87
2019-06-07T09:08:28.594Z,30.82
2019-06-07T09:10:35.571Z,30.32
2019-06-07T09:13:10.969Z,31.02
2019-06-07T09:15:34.686Z,29.56
2019-06-07T09:18:37.799Z,29.61
2019-06-07T09:20:48.476Z,29.48
2019-06-07T09:23:17.980Z,30.17
2019-06-07T09:25:57.248Z,29.80
2019-06-07T09:28:20.266Z,29.10
2019-06-07T09:30:47.636Z,29.72
2019-06-07T09:33:16.179Z,29.07
2019-06-07T09:35:44.885Z,28.45
2019-06-07T09:38:24.974Z,28.90
2019-06-07T09:40:43.807Z,28.17
2019-06-07T09:43:59.839Z,28.94
2019-06-07T09:45:43.354Z,28.26
2019-06-07T09:48:16.019Z,28.16
2019-06-07T09:50:42.265Z,29.04
2019-06-07T09:53:21.776Z,27.49
2019-06-07T09:55:41.360Z,27.77
2019-06-07T09:58:48.665Z,27.06
2019-06-07T10:00:42.319Z,28.00
2019-06-07T10:03:20.188Z,27.82
2019-06-07T10:05:41.763Z,27.30
2019-06-07T10:08:54.249Z,27.03
2019-06-07T10:10:42.912Z,27.05
2019-06-07T10:13:11.027Z,26.14
2019-06-07T10:15:39.674Z,27.02
2019-06-07T10:18:09.236Z,26.41
2019-06-07T10:20:38.210Z,26.91
2019-06-07T10:23:09.971Z,26.44
2019-06-07T10:25:38.829Z,26.31
2019-06-07T10:28:08.204Z,26.19
2019-06-07T10:30:37.014Z,25.41
2019-06-07T10:33:06.886Z,25.73
2019-06-07T10:35:35.844Z,25.62
2019-06-07T10:38:04.672Z,26.00
2019-06-07T10:40:33.346Z,26.15
2019-06-07T10:43:02.974Z,25.31
2019-06-07T10:45:31.660Z,25.40
2019-06-07T10:48:01.401Z,25.03
2019-06-07T10:50:30.221Z,25.54
2019-06-07T10:52:58.746Z,24.92
2019-06-07T10:55:27.259Z,23.58
2019-06-07T10:57:55.806Z,24.36
2019-06-07T11:00:25.347Z,23.68
2019-06-07T11:02:55.292Z,24.35
2019-06-07T11:05:24.053Z,23.91
2019-06-07T11:07:52.709Z,24.44
2019-06-07T11:10:21.987Z,23.63
2019-06-07T11:12:50.692Z,23.02
2019-06-07T11:15:19.703Z,22.71
2019-06-07T11:17:51.949Z,22.64
2019-06-07T11:20:21.223Z,22.74
2019-06-07T11:22:59.085Z,23.25
2019-06-07T11:25:36.260Z,22.24
2019-06-07T11:28:08.402Z,23.31
2019-06-07T11:30:42.924Z,21.76
2019-06-07T11:36:11.143Z,21.86
2019-06-07T11:39:01.506Z,23.16
2019-06-07T11:41:36.365Z,21.78
2019-06-07T11:44:06.783Z,21.45
2019-06-07T11:46:35.445Z,22.31
2019-06-07T11:49:06.304Z,22.13
2019-06-07T11:51:35.023Z,22.42
2019-06-07T11:54:03.568Z,22.72
2019-06-07T11:56:32.164Z,22.73
2019-06-07T11:59:01.287Z,22.07
2019-06-07T12:01:32.754Z,22.15
2019-06-07T12:04:01.267Z,22.80
2019-06-07T12:06:29.823Z,21.83
2019-06-07T12:08:58.490Z,21.12
2019-06-07T12:11:27.090Z,22.47
2019-06-07T12:13:55.656Z,22.87
2019-06-07T12:16:24.342Z,22.36
2019-06-07T12:18:52.877Z,22.00
2019-06-07T12:21:21.375Z,21.15
2019-06-07T12:23:49.946Z,21.95
2019-06-07T12:26:18.717Z,22.29
2019-06-07T12:28:51.104Z,22.48
2019-06-07T12:31:23.143Z,21.47
2019-06-07T12:33:54.500Z,21.77
2019-06-07T12:54:35.917Z,21.16
2019-06-07T12:57:04.484Z,20.94
2019-06-07T12:59:32.993Z,21.29
2019-06-07T13:02:02.558Z,20.99
2019-06-07T13:04:31.170Z,19.98
2019-06-07T13:06:59.812Z,20.36
2019-06-07T13:09:28.325Z,20.54
2019-06-07T13:11:56.800Z,21.37
2019-06-07T13:14:25.290Z,21.50
2019-06-07T13:16:53.814Z,20.56
2019-06-07T13:19:22.292Z,20.56
2019-06-07T13:21:50.791Z,20.87
2019-06-07T13:24:20.815Z,21.17
2019-06-07T13:26:49.484Z,20.30
2019-06-07T13:29:18.743Z,20.71
2019-06-07T13:31:47.369Z,20.21
2019-06-07T13:34:16.177Z,20.07
2019-06-07T13:36:44.804Z,20.11
2019-06-07T13:39:13.460Z,20.20
2019-06-07T13:41:43.311Z,19.97
2019-06-07T13:44:11.921Z,20.09
2019-06-07T13:46:40.417Z,20.51
2019-06-07T13:49:08.944Z,20.50
2019-06-07T13:51:37.528Z,20.63
2019-06-07T13:54:06.116Z,20.10
2019-06-07T13:56:34.610Z,20.59
2019-06-07T13:59:03.282Z,20.20
2019-06-07T14:01:31.803Z,20.02
2019-06-07T14:04:00.280Z,20.42
2019-06-07T14:06:30.301Z,20.44
2019-06-07T14:08:58.890Z,20.89
2019-06-07T14:11:27.867Z,20.41
2019-06-07T14:13:56.458Z,20.97
2019-06-07T14:16:26.177Z,21.01
2019-06-07T14:18:54.826Z,21.00
2019-06-07T14:21:24.509Z,20.82
2019-06-07T14:23:53.123Z,21.08
2019-06-07T14:26:21.637Z,20.95
2019-06-07T14:28:50.171Z,20.95
2019-06-07T14:31:18.673Z,20.62
2019-06-07T14:33:47.182Z,20.97
2019-06-07T14:36:15.678Z,20.93
2019-06-07T14:38:44.268Z,20.70
2019-06-07T14:41:12.774Z,21.06
2019-06-07T14:43:41.541Z,20.67
2019-06-07T14:46:10.331Z,21.42
2019-06-07T14:48:38.924Z,21.43
2019-06-07T14:51:07.401Z,20.82
2019-06-07T14:53:35.901Z,20.61
2019-06-07T14:56:04.640Z,21.28
2019-06-07T14:58:38.070Z,21.28
2019-06-07T15:01:03.353Z,21.45
2019-06-07T15:03:32.731Z,21.28
2019-06-07T15:06:01.471Z,21.34
2019-06-07T15:08:30.669Z,21.24
2019-06-07T15:10:59.278Z,21.65
2019-06-07T15:13:29.340Z,21.29
2019-06-07T15:15:58.005Z,21.50
2019-06-07T15:18:27.625Z,21.37
2019-06-07T15:20:56.181Z,21.66
2019-06-07T15:23:24.678Z,21.26
2019-06-07T15:25:53.177Z,20.79
2019-06-07T15:28:21.647Z,21.62
2019-06-07T15:30:50.201Z,21.86
2019-06-07T15:33:21.575Z,22.42
2019-06-07T15:35:50.068Z,22.67
2019-06-07T15:38:18.591Z,23.04
2019-06-07T15:40:47.129Z,22.68
2019-06-07T15:43:15.666Z,22.82
2019-06-07T15:45:44.780Z,22.48
2019-06-07T15:48:13.555Z,22.73
2019-06-07T15:50:42.080Z,22.05
2019-06-07T15:53:10.610Z,22.12
2019-06-07T15:55:43.879Z,22.39
2019-06-07T15:58:09.371Z,22.35
2019-06-07T16:00:40.553Z,22.80
2019-06-07T16:03:08.195Z,22.59
2019-06-07T16:05:36.664Z,22.84
2019-06-07T16:08:05.297Z,23.13
2019-06-07T16:10:34.637Z,23.39
2019-06-07T16:13:03.275Z,23.42
2019-06-07T16:15:32.963Z,23.91
2019-06-07T16:18:01.668Z,24.00
2019-06-07T16:20:30.306Z,24.12
2019-06-07T16:22:58.814Z,24.40
2019-06-07T16:25:27.318Z,24.50
2019-06-07T16:27:55.879Z,24.28
2019-06-07T16:30:24.958Z,24.21
2019-06-07T16:32:53.553Z,24.87
2019-06-07T16:35:22.114Z,24.63
2019-06-07T16:37:52.339Z,24.96
2019-06-07T16:40:21.362Z,24.88
2019-06-07T16:42:49.868Z,25.26
2019-06-07T16:45:18.934Z,25.62
2019-06-07T16:47:48.460Z,25.68
2019-06-07T16:50:17.911Z,25.72
2019-06-07T16:52:47.029Z,25.91
2019-06-07T16:55:20.075Z,26.07
2019-06-07T16:57:50.182Z,26.25
2019-06-07T17:00:20.263Z,26.47
2019-06-07T17:02:48.953Z,26.51
2019-06-07T17:05:17.689Z,26.76
2019-06-07T17:07:46.868Z,26.70
2019-06-07T17:10:16.062Z,26.67
2019-06-07T17:12:45.055Z,26.68
2019-06-07T17:15:15.643Z,26.55
2019-06-07T17:17:45.198Z,27.31
2019-06-07T17:20:14.269Z,27.08
2019-06-07T17:22:44.033Z,26.74
2019-06-07T17:25:13.656Z,26.85
2019-06-07T17:27:42.205Z,26.97
2019-06-07T17:30:12.055Z,26.87
2019-06-07T17:32:53.229Z,26.38
2019-06-07T17:35:11.181Z,26.42
2019-06-07T17:37:41.639Z,26.83
2019-06-07T17:40:10.502Z,26.25
2019-06-07T17:42:38.992Z,26.26
2019-06-07T17:45:12.132Z,25.89
2019-06-07T17:47:41.639Z,26.15
2019-06-07T17:50:10.867Z,26.58
2019-06-07T17:52:39.389Z,26.24
2019-06-07T17:55:08.904Z,26.59
2019-06-07T17:57:37.663Z,26.24
2019-06-07T18:00:27.651Z,26.47
2019-06-07T18:02:38.122Z,26.52
2019-06-07T18:05:07.153Z,26.40
2019-06-07T18:07:36.087Z,26.33
2019-06-07T18:10:06.663Z,26.15
2019-06-07T18:12:35.177Z,26.38
2019-06-07T18:15:05.048Z,26.50
2019-06-07T18:17:34.750Z,26.24
2019-06-07T18:20:05.235Z,26.34
2019-06-07T18:22:33.730Z,26.02
2019-06-07T18:25:02.216Z,26.01
2019-06-07T18:27:30.727Z,26.19
2019-06-07T18:29:59.246Z,25.86
2019-06-07T18:32:27.784Z,26.37
2019-06-07T18:34:56.260Z,26.38
2019-06-07T18:37:24.839Z,26.41
2019-06-07T18:39:53.356Z,26.19
2019-06-07T18:42:21.868Z,26.13
2019-06-07T18:44:51.027Z,26.01
2019-06-07T18:47:19.566Z,26.21
2019-06-07T18:49:49.333Z,25.46
2019-06-07T18:52:19.697Z,25.32
2019-06-07T18:54:48.833Z,25.64
2019-06-07T18:57:17.486Z,25.37
2019-06-07T18:59:46.072Z,25.67
2019-06-07T19:02:14.555Z,25.77
2019-06-07T19:04:43.079Z,25.78
2019-06-07T19:07:11.644Z,26.08
2019-06-07T19:09:40.289Z,25.57
2019-06-07T19:12:08.792Z,26.00
2019-06-07T19:14:37.585Z,25.81
2019-06-07T19:17:06.171Z,25.87
2019-06-07T19:19:34.674Z,25.95
2019-06-07T19:22:03.265Z,25.73
2019-06-07T19:24:31.772Z,26.09
2019-06-07T19:27:00.818Z,26.28
2019-06-07T19:29:33.443Z,26.37
2019-06-07T19:31:59.617Z,26.22
2019-06-07T19:34:28.098Z,26.37
2019-06-07T19:36:57.738Z,26.55
2019-06-07T19:39:26.332Z,26.96
2019-06-07T19:41:55.882Z,26.92
2019-06-07T19:44:24.433Z,27.23
2019-06-07T19:46:54.261Z,27.21
2019-06-07T19:49:22.770Z,27.46
2019-06-07T19:51:51.283Z,27.23
2019-06-07T19:54:19.773Z,27.35
2019-06-07T19:56:48.292Z,32.29
2019-06-07T19:59:16.788Z,39.05
2019-06-07T20:01:45.435Z,42.87
2019-06-07T20:04:16.470Z,44.06
2019-06-07T20:06:46.558Z,46.06
2019-06-07T20:09:15.072Z,46.84
2019-06-07T20:11:43.628Z,46.86
2019-06-07T20:14:12.215Z,47.05
2019-06-07T20:16:40.808Z,47.55
2019-06-07T20:19:09.450Z,47.74
2019-06-07T20:21:37.971Z,48.24
2019-06-07T20:24:24.757Z,48.35
2019-06-07T20:26:36.820Z,48.90
2019-06-07T20:29:24.872Z,49.01
2019-06-07T20:31:38.674Z,48.89
2019-06-07T20:34:07.157Z,49.06
2019-06-07T20:36:35.740Z,49.56
2019-06-07T20:39:12.756Z,49.85
2019-06-07T20:41:36.960Z,50.09
2019-06-07T20:44:05.904Z,50.29
2019-06-07T20:46:34.471Z,50.36
2019-06-07T20:49:04.915Z,50.52
2019-06-07T20:51:33.191Z,50.55
2019-06-07T20:54:02.549Z,50.59
2019-06-07T20:56:31.137Z,50.82
2019-06-07T20:59:00.470Z,51.11
2019-06-07T21:01:29.014Z,51.35
2019-06-07T21:03:58.880Z,51.33
2019-06-07T21:06:27.454Z,51.37
2019-06-07T21:08:55.995Z,51.61
2019-06-07T21:11:24.953Z,51.67
2019-06-07T21:13:53.521Z,51.74
2019-06-07T21:16:22.051Z,51.95
2019-06-07T21:18:50.534Z,52.05
2019-06-07T21:21:19.154Z,52.19
2019-06-07T21:23:47.737Z,52.27
2019-06-07T21:26:16.204Z,52.23
2019-06-07T21:28:44.725Z,52.73
2019-06-07T21:31:13.502Z,53.96
2019-06-07T21:33:41.969Z,54.74
2019-06-07T21:36:11.781Z,55.30
2019-06-07T21:38:40.371Z,54.87
2019-06-07T21:41:09.028Z,55.05
2019-06-07T21:43:40.438Z,54.95
2019-06-07T21:46:14.934Z,55.20
2019-06-07T21:48:39.325Z,54.93
2019-06-07T21:51:08.645Z,54.95
2019-06-07T21:53:37.174Z,54.66
2019-06-07T21:56:07.045Z,54.92
2019-06-07T21:58:35.575Z,55.39
2019-06-07T22:01:08.455Z,55.00
2019-06-07T22:03:37.393Z,54.83
2019-06-07T22:06:06.307Z,54.33
2019-06-07T22:08:36.139Z,54.34
2019-06-07T22:11:06.056Z,53.96
2019-06-07T22:13:34.705Z,53.60
2019-06-07T22:16:04.039Z,53.79
2019-06-07T22:18:32.622Z,54.18
2019-06-07T22:21:01.142Z,55.22
2019-06-07T22:23:29.595Z,55.90
2019-06-07T22:25:58.077Z,56.32
2019-06-07T22:28:28.216Z,57.29
2019-06-07T22:30:56.735Z,58.17
2019-06-07T22:33:25.243Z,58.17
2019-06-07T22:35:53.900Z,57.85
2019-06-07T22:38:22.410Z,57.77
2019-06-07T22:40:50.929Z,58.23
2019-06-07T22:43:19.469Z,58.06
2019-06-07T22:45:48.028Z,57.92
2019-06-07T22:48:17.555Z,57.68
2019-06-07T22:50:46.124Z,58.74
2019-06-07T22:53:15.549Z,59.24
2019-06-07T22:55:46.330Z,61.12
2019-06-07T22:58:15.974Z,61.16
2019-06-07T23:00:44.683Z,61.48
2019-06-07T23:03:14.897Z,61.36
2019-06-07T23:05:45.273Z,61.15
2019-06-07T23:08:14.913Z,61.38
2019-06-07T23:10:45.257Z,61.62
2019-06-07T23:14:09.140Z,60.85
2019-06-07T23:16:54.366Z,61.35
2019-06-07T23:19:07.954Z,61.96
2019-06-07T23:21:36.472Z,62.13
2019-06-07T23:24:05.052Z,62.67
2019-06-07T23:26:33.636Z,62.46
2019-06-07T23:29:02.225Z,62.83
2019-06-07T23:32:24.491Z,63.74
2019-06-07T23:34:52.991Z,62.85
2019-06-07T23:37:21.494Z,63.30
2019-06-07T23:39:49.980Z,62.75
2019-06-07T23:42:19.711Z,62.84
2019-06-07T23:44:48.251Z,63.27
2019-06-07T23:47:17.670Z,62.21
2019-06-07T23:49:46.935Z,62.34
2019-06-07T23:52:15.610Z,62.00
2019-06-07T23:54:44.086Z,61.81
2019-06-07T23:57:13.767Z,61.71
2019-06-07T23:59:42.456Z,62.09
